Terminal Aerodrome Forecast
Issued by NWS

Home | Current Version | Previous Version | Text Only | Print | Product List | Glossary Off
Versions: 1 2 3 4 5 6 7 8 9 10 11 12 13 14 15 16 17 18 19

000
FTUS43 KMPX 220200 AAA
TAFAXN
TAF AMD
KAXN 220251Z 2203/2224 18014G21KT P6SM SCT040 OVC200
     FM220400 15008KT P6SM VCTS SCT050CB OVC120
      TEMPO 2204/2206 32025G38KT 1 1/2SM +TSRA BKN050CB OVC100
     FM220800 26005KT 6SM BR SCT030 BKN080
     FM221000 30009G16KT P6SM SCT030 BKN080
     FM221300 32017G24KT P6SM SCT020 BKN250=

USA.gov is the U.S. government's official web portal to all federal, state and local government web resources and services.